Time;durP1;ratioP1;P1;durP2;ratioP2;P2;SDS_P1;SDS_P2;PMS_P1;PMS_P2;Temp;Humidity;BMP_temperature;BMP_pressure;BME280_temperature;BME280_humidity;BME280_pressure;Samples;Min_cycle;Max_cycle;Signal;HPM_P1;HPM_P2
2021/05/18 00:01:36;;;;;;;4.57;2.92;;;14.30;64.00;;;;;;5039175;28;20048;-87
2021/05/18 00:04:02;;;;;;;5.32;3.30;;;14.30;64.00;;;;;;5039331;28;20068;-88
2021/05/18 00:06:28;;;;;;;4.40;3.00;;;14.30;64.10;;;;;;5052423;28;20086;-87
2021/05/18 00:11:47;;;;;;;3.83;2.63;;;14.20;64.10;;;;;;5053452;28;20029;-87
2021/05/18 00:14:20;;;;;;;5.78;3.13;;;14.20;64.00;;;;;;5022866;28;20059;-87
2021/05/18 00:16:47;;;;;;;4.85;2.72;;;14.20;64.10;;;;;;5039253;28;20116;-87
2021/05/18 00:19:13;;;;;;;5.88;3.22;;;14.20;64.10;;;;;;5050322;28;20041;-87
2021/05/18 00:21:40;;;;;;;4.93;3.03;;;14.10;64.10;;;;;;5034252;28;20051;-88
2021/05/18 00:24:06;;;;;;;4.95;3.33;;;14.10;64.10;;;;;;5002789;28;20032;-87
2021/05/18 00:26:32;;;;;;;4.53;3.00;;;14.10;64.10;;;;;;5071957;28;20028;-87
2021/05/18 00:28:58;;;;;;;4.53;2.78;;;14.10;64.20;;;;;;5034738;28;20071;-88
2021/05/18 00:31:24;;;;;;;5.13;3.33;;;14.00;64.20;;;;;;5050807;28;20033;-87
2021/05/18 00:33:50;;;;;;;4.50;2.97;;;14.00;64.10;;;;;;5035455;28;20040;-88
2021/05/18 00:36:16;;;;;;;5.32;3.33;;;14.00;64.20;;;;;;5016038;28;20038;-87
2021/05/18 00:38:42;;;;;;;4.40;3.05;;;14.00;64.20;;;;;;5032538;28;20037;-87
2021/05/18 00:41:09;;;;;;;4.03;2.75;;;14.00;64.20;;;;;;5031993;28;20044;-87
2021/05/18 00:43:36;;;;;;;5.43;3.67;;;14.00;64.20;;;;;;5017382;28;20390;-87
2021/05/18 00:46:03;;;;;;;6.03;3.10;;;14.00;64.30;;;;;;5035719;28;20029;-86
2021/05/18 00:48:29;;;;;;;5.75;3.20;;;13.90;64.20;;;;;;5052327;28;20033;-87
2021/05/18 00:51:07;;;;;;;5.43;3.55;;;13.90;64.20;;;;;;5052387;28;20096;-87
2021/05/18 00:53:35;;;;;;;4.07;2.95;;;13.90;64.30;;;;;;5032557;28;20026;-87
2021/05/18 00:56:33;;;;;;;4.35;3.08;;;13.90;64.30;;;;;;5009162;28;20033;-87
2021/05/18 00:59:01;;;;;;;3.88;2.78;;;13.90;64.30;;;;;;5035458;28;20040;-87
2021/05/18 01:01:29;;;;;;;4.28;2.97;;;13.80;64.20;;;;;;5031557;28;20466;-87
2021/05/18 01:03:55;;;;;;;4.13;2.83;;;13.80;64.30;;;;;;5038391;28;20033;-87
2021/05/18 01:08:54;;;;;;;4.10;3.05;;;13.80;64.40;;;;;;5056638;28;20039;-87
2021/05/18 01:11:27;;;;;;;4.43;3.15;;;13.70;64.40;;;;;;5040138;28;20412;-87
2021/05/18 01:14:03;;;;;;;5.53;3.38;;;13.70;64.40;;;;;;5056091;28;20029;-86
2021/05/18 01:16:35;;;;;;;4.18;3.05;;;13.70;64.40;;;;;;5029422;28;20034;-86
2021/05/18 01:19:02;;;;;;;5.07;3.60;;;13.70;64.50;;;;;;5049012;28;20037;-86
2021/05/18 01:21:28;;;;;;;5.57;3.42;;;13.60;64.40;;;;;;5012634;28;20029;-87
2021/05/18 01:23:55;;;;;;;5.68;3.30;;;13.60;64.40;;;;;;5003084;28;20033;-87
2021/05/18 01:26:21;;;;;;;5.18;3.03;;;13.60;64.40;;;;;;5022291;28;20040;-87
2021/05/18 01:28:47;;;;;;;5.53;3.97;;;13.60;64.50;;;;;;5038906;28;20049;-87
2021/05/18 01:31:19;;;;;;;4.45;3.50;;;13.60;64.50;;;;;;5006086;28;20150;-87
2021/05/18 01:33:45;;;;;;;5.10;3.33;;;13.60;64.60;;;;;;5051582;28;20025;-86
2021/05/18 01:36:15;;;;;;;5.35;3.60;;;13.60;64.50;;;;;;5010141;28;20405;-87
2021/05/18 01:44:15;;;;;;;4.50;3.58;;;13.50;64.50;;;;;;5035952;28;20044;-86
2021/05/18 01:46:42;;;;;;;4.95;3.35;;;13.50;64.50;;;;;;5015122;28;20029;-86
2021/05/18 01:49:10;;;;;;;5.07;3.50;;;13.50;64.60;;;;;;5036917;28;20111;-88
2021/05/18 01:51:50;;;;;;;3.88;2.92;;;13.50;65.30;;;;;;5035608;28;20028;-87
2021/05/18 01:54:23;;;;;;;5.35;3.42;;;13.50;64.70;;;;;;5038450;28;20025;-87
2021/05/18 01:57:17;;;;;;;5.28;3.55;;;13.50;64.70;;;;;;5038385;28;20053;-87
2021/05/18 01:59:46;;;;;;;4.50;3.13;;;13.50;64.70;;;;;;5047141;28;20030;-87
2021/05/18 02:02:21;;;;;;;4.45;3.03;;;13.50;65.40;;;;;;5038454;28;20028;-87
2021/05/18 02:04:56;;;;;;;5.40;3.47;;;13.50;64.70;;;;;;5039415;28;20027;-87
2021/05/18 02:07:35;;;;;;;4.32;3.10;;;13.50;64.80;;;;;;5034375;28;20144;-87
2021/05/18 02:10:04;;;;;;;4.68;3.35;;;13.50;64.90;;;;;;5026737;28;20027;-87
2021/05/18 02:12:32;;;;;;;4.95;3.40;;;13.40;64.80;;;;;;5038125;28;20040;-86
2021/05/18 02:15:07;;;;;;;4.68;3.30;;;13.40;64.80;;;;;;5005067;28;20132;-87
2021/05/18 02:25:20;;;;;;;5.35;3.42;;;13.40;64.90;;;;;;5031968;28;20041;-86
2021/05/18 02:28:00;;;;;;;4.43;3.40;;;13.40;64.90;;;;;;5040330;28;20049;-86
2021/05/18 02:30:29;;;;;;;5.30;3.35;;;13.40;64.90;;;;;;5038028;28;20040;-87
2021/05/18 02:32:57;;;;;;;5.53;3.75;;;13.40;65.00;;;;;;5037452;28;20039;-88
2021/05/18 02:35:43;;;;;;;4.68;3.40;;;13.40;65.00;;;;;;5039925;28;20044;-90
2021/05/18 02:38:09;;;;;;;5.63;3.83;;;13.40;65.00;;;;;;5020274;28;20043;-90
2021/05/18 02:40:39;;;;;;;6.03;3.88;;;13.40;65.10;;;;;;5036677;28;20055;-90
2021/05/18 02:43:06;;;;;;;5.55;3.92;;;13.40;65.10;;;;;;5035115;28;20121;-93
2021/05/18 02:50:49;;;;;;;5.40;3.95;;;13.40;65.20;;;;;;5053957;28;20033;-94
2021/05/18 02:53:17;;;;;;;4.60;3.30;;;13.40;65.20;;;;;;5035515;28;20056;-94
2021/05/18 02:58:12;;;;;;;5.15;3.75;;;13.40;65.30;;;;;;5031225;28;20025;-93
2021/05/18 03:00:37;;;;;;;5.43;3.40;;;13.40;65.30;;;;;;5026954;28;20040;-93
2021/05/18 03:03:04;;;;;;;5.43;3.55;;;13.40;65.30;;;;;;5050292;28;20037;-93
2021/05/18 03:05:29;;;;;;;5.00;3.70;;;13.30;65.30;;;;;;5029505;28;20038;-93
2021/05/18 03:08:00;;;;;;;6.00;3.70;;;13.30;65.30;;;;;;5049729;28;20072;-93
2021/05/18 03:10:27;;;;;;;5.20;3.80;;;13.40;65.40;;;;;;5038439;28;20025;-94
2021/05/18 03:12:52;;;;;;;5.07;3.92;;;13.30;65.40;;;;;;5036674;28;20037;-94
2021/05/18 03:15:18;;;;;;;5.20;3.80;;;13.30;65.40;;;;;;5032768;28;20026;-94
2021/05/18 03:17:44;;;;;;;5.55;3.50;;;13.30;65.40;;;;;;5036372;28;20087;-94
2021/05/18 03:20:14;;;;;;;5.40;3.70;;;13.30;65.50;;;;;;5035910;28;20450;-90
2021/05/18 03:22:43;;;;;;;5.10;3.65;;;13.30;65.50;;;;;;5033054;28;20057;-94
2021/05/18 03:25:10;;;;;;;5.13;3.50;;;13.30;65.50;;;;;;5032214;28;20029;-95
2021/05/18 03:27:36;;;;;;;4.78;3.42;;;13.40;65.50;;;;;;5032528;28;20486;-95
2021/05/18 03:30:22;;;;;;;5.40;3.70;;;13.30;65.50;;;;;;5031900;28;20069;-94
2021/05/18 03:35:32;;;;;;;4.40;3.63;;;13.30;65.50;;;;;;5035173;28;20041;-94
2021/05/18 03:38:01;;;;;;;5.18;3.65;;;13.30;65.40;;;;;;5005887;28;20028;-93
2021/05/18 03:40:28;;;;;;;5.28;3.63;;;13.40;65.60;;;;;;5002796;28;20117;-94
2021/05/18 03:43:32;;;;;;;5.30;3.63;;;13.30;65.50;;;;;;5013415;28;20037;-93
2021/05/18 03:45:49;;;;;;;5.10;3.65;;;13.40;65.60;;;;;;5017792;28;20116;-92
2021/05/18 03:53:51;;;;;;;4.47;3.45;;;13.30;65.60;;;;;;5014350;28;20125;-94
2021/05/18 04:04:33;;;;;;;5.10;3.78;;;13.30;65.60;;;;;;5007832;28;20042;-93
2021/05/18 04:23:24;;;;;;;6.00;4.50;;;13.30;65.80;;;;;;5048604;28;20500;-94
2021/05/18 05:01:42;;;;;;;5.65;4.15;;;13.30;65.90;;;;;;5050893;28;20044;-94
2021/05/18 05:04:20;;;;;;;5.10;3.88;;;13.30;65.90;;;;;;5023308;28;20033;-95
2021/05/18 05:09:46;;;;;;;5.40;3.97;;;13.30;65.90;;;;;;5022367;28;20032;-90
2021/05/18 05:14:49;;;;;;;;;;;13.40;65.90;;;;;;5056801;28;20029;-90
2021/05/18 05:17:14;;;;;;;4.10;3.10;;;13.40;65.80;;;;;;5055764;28;20268;-90
2021/05/18 05:19:40;;;;;;;4.75;3.42;;;13.40;65.70;;;;;;5054758;28;20495;-89
2021/05/18 05:22:07;;;;;;;5.78;4.07;;;13.40;65.80;;;;;;5039110;28;20037;-87
2021/05/18 05:24:33;;;;;;;5.90;4.10;;;13.40;65.90;;;;;;5038859;28;20389;-88
2021/05/18 05:27:00;;;;;;;4.65;3.50;;;13.40;66.00;;;;;;5055691;28;20044;-88
2021/05/18 05:29:26;;;;;;;4.93;3.97;;;13.40;66.00;;;;;;5033783;28;20049;-88
2021/05/18 05:31:54;;;;;;;5.47;4.13;;;13.40;65.90;;;;;;5036427;28;20489;-90
2021/05/18 05:34:21;;;;;;;5.47;4.15;;;13.40;65.90;;;;;;5034018;28;20030;-90
2021/05/18 05:36:47;;;;;;;5.45;4.13;;;13.40;65.90;;;;;;5022113;28;20034;-90
2021/05/18 05:39:24;;;;;;;5.75;4.25;;;13.40;65.90;;;;;;5026377;28;20028;-90
2021/05/18 05:41:52;;;;;;;5.35;4.30;;;13.40;65.90;;;;;;5025768;28;20033;-91
2021/05/18 05:44:18;;;;;;;5.75;4.40;;;13.40;65.90;;;;;;5046647;28;20030;-90
2021/05/18 05:46:44;;;;;;;6.30;5.15;;;13.50;65.90;;;;;;5026000;28;20032;-90
2021/05/18 05:49:10;;;;;;;5.78;4.60;;;13.50;65.90;;;;;;5034161;28;20091;-88
2021/05/18 05:51:37;;;;;;;5.93;4.80;;;13.50;65.90;;;;;;5036040;28;20469;-91
2021/05/18 05:54:03;;;;;;;6.32;4.90;;;13.50;65.90;;;;;;5010819;28;20030;-89
2021/05/18 05:56:30;;;;;;;6.35;4.70;;;13.50;65.90;;;;;;5035061;28;20028;-92
2021/05/18 05:58:58;;;;;;;5.57;4.50;;;13.50;65.90;;;;;;5036074;28;20057;-91
2021/05/18 06:01:24;;;;;;;6.32;4.93;;;13.50;65.90;;;;;;5005207;28;20026;-91
2021/05/18 06:03:50;;;;;;;6.20;4.80;;;13.50;65.80;;;;;;5015189;28;20108;-93
2021/05/18 06:06:16;;;;;;;6.35;4.78;;;13.60;65.90;;;;;;5034397;28;20163;-88
2021/05/18 06:08:44;;;;;;;6.38;4.88;;;13.60;65.90;;;;;;5034757;28;20436;-93
2021/05/18 06:11:25;;;;;;;6.50;4.90;;;13.60;66.50;;;;;;5017957;28;20462;-93
2021/05/18 06:43:48;;;;;;;6.68;5.10;;;13.60;66.60;;;;;;5049457;28;20041;-92
2021/05/18 06:46:24;;;;;;;6.70;5.07;;;13.60;66.00;;;;;;5049109;28;20036;-93
2021/05/18 06:48:58;;;;;;;6.30;5.03;;;13.70;66.00;;;;;;5058797;28;20036;-91
2021/05/18 06:51:24;;;;;;;6.57;5.43;;;13.70;66.00;;;;;;5041648;28;20288;-92
2021/05/18 06:53:50;;;;;;;6.95;5.57;;;13.70;66.00;;;;;;5026470;28;20457;-92
2021/05/18 06:56:16;;;;;;;7.05;5.47;;;13.70;66.00;;;;;;5056651;28;20117;-92
2021/05/18 07:01:08;;;;;;;7.65;5.45;;;13.80;66.10;;;;;;5038912;28;20036;-90
2021/05/18 07:03:40;;;;;;;6.70;5.22;;;13.80;66.20;;;;;;5057063;28;20032;-89
2021/05/18 07:11:00;;;;;;;7.53;6.10;;;13.80;66.10;;;;;;5026131;28;20052;-91
2021/05/18 07:13:26;;;;;;;7.60;5.65;;;13.80;66.10;;;;;;5023921;28;20032;-90
2021/05/18 07:15:52;;;;;;;6.65;5.68;;;13.90;66.20;;;;;;5056220;28;20058;-89
2021/05/18 07:18:17;;;;;;;6.97;5.90;;;13.90;66.20;;;;;;5056782;28;20037;-90
2021/05/18 07:20:43;;;;;;;6.95;5.47;;;13.90;66.20;;;;;;5040176;28;20064;-90
2021/05/18 07:23:15;;;;;;;7.32;6.18;;;13.90;66.20;;;;;;5025254;28;20104;-91
2021/05/18 07:25:41;;;;;;;7.88;5.93;;;13.90;66.20;;;;;;5041601;28;20485;-90
2021/05/18 07:28:08;;;;;;;6.43;4.85;;;14.00;66.20;;;;;;5038590;28;20036;-90
2021/05/18 07:30:36;;;;;;;6.53;5.28;;;14.00;66.20;;;;;;5054060;28;20040;-91
2021/05/18 07:33:03;;;;;;;7.60;5.88;;;13.90;66.10;;;;;;5033504;28;20497;-92
2021/05/18 07:35:28;;;;;;;7.30;5.80;;;13.90;66.10;;;;;;5049372;28;20029;-93
2021/05/18 07:37:54;;;;;;;6.95;5.80;;;14.00;66.10;;;;;;5003768;28;20112;-93
2021/05/18 07:40:20;;;;;;;7.10;5.70;;;14.00;66.20;;;;;;5054274;28;20365;-94
2021/05/18 07:42:51;;;;;;;7.22;5.53;;;14.00;66.10;;;;;;5036574;28;20029;-94
2021/05/18 07:45:25;;;;;;;6.90;5.55;;;14.00;66.10;;;;;;5020940;28;20036;-94
2021/05/18 07:47:52;;;;;;;7.22;6.10;;;14.10;66.10;;;;;;5039320;28;20404;-93
2021/05/18 07:50:32;;;;;;;6.43;5.22;;;14.00;66.00;;;;;;5036034;28;20025;-92
2021/05/18 08:06:31;;;;;;;5.85;4.90;;;14.10;66.10;;;;;;5038821;28;20124;-93
2021/05/18 08:08:56;;;;;;;5.80;4.43;;;14.10;66.10;;;;;;5052363;28;20092;-92
2021/05/18 08:11:24;;;;;;;6.35;4.70;;;14.10;66.10;;;;;;5038563;28;20079;-92
2021/05/18 08:13:53;;;;;;;5.93;4.32;;;14.10;66.10;;;;;;5042932;28;20029;-93
2021/05/18 08:17:09;;;;;;;5.97;4.75;;;14.20;66.20;;;;;;5029784;28;20023;-95
2021/05/18 08:19:50;;;;;;;5.75;4.43;;;14.20;66.20;;;;;;5036497;28;20064;-96
2021/05/18 10:36:12;;;;;;;3.88;2.90;;;15.60;65.90;;;;;;5054947;28;20020;-91
2021/05/18 10:38:43;;;;;;;4.55;2.90;;;15.70;65.90;;;;;;5053040;28;20017;-91
2021/05/18 10:41:16;;;;;;;4.07;2.78;;;15.70;65.70;;;;;;5032590;28;20411;-90
2021/05/18 10:43:44;;;;;;;3.72;2.75;;;15.70;65.70;;;;;;5043432;28;20497;-91
2021/05/18 10:46:20;;;;;;;3.92;2.80;;;15.80;65.70;;;;;;5004758;28;20032;-89
2021/05/18 10:48:53;;;;;;;4.20;2.88;;;15.80;65.60;;;;;;5047605;28;20024;-89
2021/05/18 10:51:36;;;;;;;3.92;2.97;;;15.90;65.60;;;;;;5051109;28;20059;-84
2021/05/18 10:54:18;;;;;;;3.92;2.75;;;15.90;65.70;;;;;;5056680;28;20033;-85
2021/05/18 10:57:02;;;;;;;2.88;1.98;;;16.00;65.70;;;;;;5040121;28;20027;-85
2021/05/18 10:59:32;;;;;;;3.30;2.30;;;16.00;65.60;;;;;;5036863;28;20025;-88
2021/05/18 11:02:05;;;;;;;2.90;2.40;;;16.00;65.60;;;;;;5039881;28;20481;-89
2021/05/18 11:04:34;;;;;;;3.20;2.28;;;16.00;65.50;;;;;;5041059;28;20032;-91
2021/05/18 11:07:03;;;;;;;3.38;2.35;;;16.10;65.50;;;;;;5043979;28;20012;-91
2021/05/18 11:09:29;;;;;;;3.42;2.20;;;16.10;65.50;;;;;;5057067;28;20024;-87
2021/05/18 11:12:05;;;;;;;2.97;2.20;;;16.20;65.50;;;;;;5026199;28;20031;-87
2021/05/18 11:14:33;;;;;;;3.30;2.47;;;16.20;65.60;;;;;;5057421;28;20028;-90
2021/05/18 11:17:10;;;;;;;3.08;2.20;;;16.30;65.50;;;;;;5026308;28;20021;-88
2021/05/18 11:20:05;;;;;;;3.47;2.15;;;16.30;65.50;;;;;;5073740;28;20029;-89
2021/05/18 11:26:03;;;;;;;2.80;2.00;;;16.40;65.40;;;;;;5074359;28;20036;-85
2021/05/18 11:28:42;;;;;;;3.15;2.25;;;16.50;65.20;;;;;;5048766;28;20037;-84
2021/05/18 11:31:20;;;;;;;2.80;2.10;;;16.60;65.30;;;;;;5034674;28;20078;-85
2021/05/18 11:33:52;;;;;;;2.78;2.03;;;16.60;65.30;;;;;;5055541;28;20033;-83
2021/05/18 11:36:28;;;;;;;3.45;2.30;;;16.70;65.20;;;;;;5046637;28;20565;-84
2021/05/18 11:38:58;;;;;;;2.17;1.98;;;16.80;65.20;;;;;;5060172;28;20025;-86
2021/05/18 11:41:26;;;;;;;2.25;1.85;;;16.80;65.20;;;;;;5032060;28;20028;-88
2021/05/18 11:44:01;;;;;;;2.80;2.03;;;16.90;65.20;;;;;;5052886;28;20127;-94
2021/05/18 11:46:29;;;;;;;3.42;2.47;;;16.90;65.10;;;;;;5056780;28;20384;-83
2021/05/18 11:48:57;;;;;;;2.38;2.00;;;17.00;65.10;;;;;;5038332;28;20028;-86
2021/05/18 11:51:23;;;;;;;3.95;1.90;;;17.00;65.10;;;;;;5057374;28;20103;-83
2021/05/18 11:53:52;;;;;;;2.60;2.10;;;17.10;65.10;;;;;;5056029;28;20024;-87
2021/05/18 11:56:23;;;;;;;2.88;2.08;;;17.10;65.10;;;;;;5054662;28;20288;-84
2021/05/18 11:58:57;;;;;;;2.63;1.98;;;17.20;65.20;;;;;;5056061;28;20035;-85
2021/05/18 12:01:58;;;;;;;2.30;1.95;;;17.20;65.10;;;;;;5039991;28;20054;-84
2021/05/18 12:04:26;;;;;;;2.88;2.00;;;17.30;65.20;;;;;;5033532;28;20076;-88
2021/05/18 12:07:04;;;;;;;2.28;1.95;;;17.30;65.00;;;;;;5055492;28;20020;-83
2021/05/18 12:09:33;;;;;;;2.40;1.95;;;17.40;65.10;;;;;;5055430;28;20066;-87
2021/05/18 12:11:59;;;;;;;2.63;1.83;;;17.40;65.00;;;;;;5035787;28;20060;-85
2021/05/18 12:14:26;;;;;;;3.10;1.98;;;17.50;65.00;;;;;;5053690;28;20089;-86
2021/05/18 12:16:53;;;;;;;2.50;1.70;;;17.50;65.00;;;;;;5026598;28;20077;-82
2021/05/18 12:19:20;;;;;;;3.20;2.30;;;17.60;65.00;;;;;;5054758;28;20086;-85
2021/05/18 12:21:48;;;;;;;2.83;2.30;;;17.60;64.90;;;;;;5041262;28;20124;-87
2021/05/18 12:24:17;;;;;;;3.00;2.03;;;17.60;64.90;;;;;;5048223;28;20396;-86
2021/05/18 12:26:53;;;;;;;2.72;2.10;;;17.70;64.80;;;;;;5040321;28;20040;-85
2021/05/18 12:29:35;;;;;;;2.80;1.95;;;17.70;64.80;;;;;;5048219;28;20041;-85
2021/05/18 12:32:23;;;;;;;2.13;1.67;;;17.80;64.80;;;;;;5053471;28;20033;-85
2021/05/18 12:34:52;;;;;;;2.42;1.80;;;17.80;64.70;;;;;;5044250;28;20075;-85
2021/05/18 12:37:43;;;;;;;1.83;1.65;;;17.80;64.50;;;;;;5052173;28;20016;-84
2021/05/18 12:40:26;;;;;;;2.35;1.65;;;17.80;64.60;;;;;;5039133;28;20037;-85
2021/05/18 12:42:53;;;;;;;1.80;1.52;;;17.90;64.50;;;;;;5058439;28;20080;-86
2021/05/18 12:45:21;;;;;;;1.92;1.38;;;17.90;64.40;;;;;;5035506;28;20021;-86
2021/05/18 12:47:56;;;;;;;1.98;1.77;;;17.90;64.40;;;;;;5037404;28;20021;-84
2021/05/18 12:50:22;;;;;;;1.77;1.45;;;17.90;64.40;;;;;;5072101;28;20062;-84
2021/05/18 12:52:52;;;;;;;2.15;1.60;;;17.90;64.30;;;;;;5039542;28;20035;-85
2021/05/18 12:55:29;;;;;;;2.38;1.70;;;18.00;64.30;;;;;;5054983;28;20115;-84
2021/05/18 12:57:59;;;;;;;1.75;1.50;;;18.00;64.30;;;;;;5049062;28;20025;-83
2021/05/18 13:00:36;;;;;;;1.73;1.40;;;18.00;64.30;;;;;;5054681;28;20024;-84
2021/05/18 13:03:15;;;;;;;1.60;1.50;;;18.10;64.40;;;;;;5031072;28;20523;-84
2021/05/18 13:05:43;;;;;;;1.65;1.55;;;18.10;64.40;;;;;;5042684;28;20040;-88
2021/05/18 13:08:16;;;;;;;1.90;1.50;;;18.10;64.40;;;;;;5040677;28;20054;-85
2021/05/18 13:13:44;;;;;;;1.90;1.70;;;18.20;64.60;;;;;;5036125;28;20040;-85
2021/05/18 13:16:25;;;;;;;2.08;1.60;;;18.20;64.40;;;;;;5041600;28;20445;-86
2021/05/18 13:19:10;;;;;;;2.38;1.70;;;18.20;64.40;;;;;;5035485;28;20115;-83
2021/05/18 13:21:48;;;;;;;1.65;1.55;;;18.30;64.40;;;;;;5056885;28;20147;-84
2021/05/18 13:26:41;;;;;;;1.60;1.50;;;18.30;64.20;;;;;;5042114;28;20049;-85
2021/05/18 13:29:16;;;;;;;2.20;1.73;;;18.40;64.20;;;;;;5054743;28;20045;-86
2021/05/18 13:31:42;;;;;;;2.30;1.77;;;18.40;64.00;;;;;;5059152;28;20128;-84
2021/05/18 13:34:09;;;;;;;1.70;1.45;;;18.40;63.90;;;;;;5038546;28;20025;-84
2021/05/18 13:36:35;;;;;;;1.75;1.58;;;18.50;63.80;;;;;;5058972;28;20458;-84
2021/05/18 13:39:04;;;;;;;2.55;1.70;;;18.50;63.70;;;;;;5021570;28;20465;-84
2021/05/18 13:41:29;;;;;;;1.70;1.48;;;18.50;63.50;;;;;;5048359;28;20037;-85
2021/05/18 13:43:55;;;;;;;1.65;1.55;;;18.50;63.40;;;;;;5025190;28;20037;-84
2021/05/18 13:46:21;;;;;;;2.22;1.80;;;18.60;63.40;;;;;;5058211;28;20025;-85
2021/05/18 13:48:47;;;;;;;3.20;2.10;;;18.60;63.40;;;;;;5044247;28;20056;-85
2021/05/18 13:51:14;;;;;;;2.53;2.10;;;18.70;63.30;;;;;;5051718;28;20059;-84
2021/05/18 13:53:41;;;;;;;3.33;1.90;;;18.60;63.10;;;;;;5015315;28;20029;-84
2021/05/18 13:56:07;;;;;;;2.03;1.77;;;18.70;63.10;;;;;;5056546;28;20456;-84
2021/05/18 13:58:33;;;;;;;2.35;2.00;;;18.70;63.10;;;;;;5053607;28;20029;-84
2021/05/18 14:01:02;;;;;;;2.45;2.10;;;18.70;63.00;;;;;;5041410;28;20039;-84
2021/05/18 14:03:27;;;;;;;2.92;1.83;;;18.80;63.10;;;;;;5041138;28;20029;-84
2021/05/18 14:05:53;;;;;;;2.40;1.88;;;18.80;63.10;;;;;;5024803;28;20054;-84
2021/05/18 14:11:18;;;;;;;1.75;1.58;;;18.80;63.00;;;;;;5061094;28;20029;-83
2021/05/18 14:13:55;;;;;;;2.50;1.80;;;18.80;63.10;;;;;;5022650;28;20033;-84
2021/05/18 14:16:22;;;;;;;3.00;1.70;;;18.90;63.00;;;;;;5051449;28;20025;-84
2021/05/18 14:18:50;;;;;;;2.33;1.80;;;18.90;62.90;;;;;;5032108;28;20025;-85
2021/05/18 14:21:20;;;;;;;1.95;1.75;;;18.90;62.90;;;;;;5034725;28;20029;-85
2021/05/18 14:26:29;;;;;;;2.22;1.85;;;19.00;62.90;;;;;;5057927;28;20033;-85
2021/05/18 14:28:55;;;;;;;2.92;1.80;;;19.00;62.90;;;;;;5037054;28;20036;-85
2021/05/18 14:31:21;;;;;;;2.17;1.90;;;19.00;62.80;;;;;;5057315;28;20024;-89
2021/05/18 14:33:47;;;;;;;2.03;1.70;;;19.00;62.80;;;;;;5037968;28;20028;-83
2021/05/18 14:36:14;;;;;;;2.63;2.00;;;19.00;62.80;;;;;;5013111;28;20074;-84
2021/05/18 14:38:43;;;;;;;1.60;1.50;;;19.00;62.80;;;;;;5039684;28;20025;-89
2021/05/18 14:57:11;;;;;;;2.58;1.75;;;19.20;62.40;;;;;;5037637;28;20115;-83
2021/05/18 14:59:37;;;;;;;2.13;1.75;;;19.20;62.40;;;;;;5039962;28;20032;-89
2021/05/18 15:02:03;;;;;;;2.13;1.48;;;19.20;62.30;;;;;;5040516;28;20029;-84
2021/05/18 15:04:30;;;;;;;2.40;1.80;;;19.30;62.30;;;;;;5022182;28;20028;-84
2021/05/18 15:06:57;;;;;;;2.03;1.50;;;19.30;62.20;;;;;;5040381;28;20020;-85
2021/05/18 15:09:22;;;;;;;1.90;1.42;;;19.30;62.20;;;;;;5054824;28;20035;-85
2021/05/18 15:11:48;;;;;;;2.00;1.42;;;19.30;62.10;;;;;;5011667;28;20032;-87
2021/05/18 15:14:14;;;;;;;1.38;1.27;;;19.30;62.10;;;;;;5040007;28;20035;-87
2021/05/18 15:16:40;;;;;;;2.30;1.60;;;19.30;62.00;;;;;;5023420;28;20044;-87
2021/05/18 15:19:09;;;;;;;2.15;1.52;;;19.40;62.00;;;;;;5056940;28;20081;-87
2021/05/18 15:21:36;;;;;;;2.00;1.55;;;19.40;61.90;;;;;;5039852;28;20044;-87
2021/05/18 15:24:02;;;;;;;2.33;1.67;;;19.40;61.90;;;;;;5056867;28;20056;-85
2021/05/18 15:26:28;;;;;;;1.88;1.48;;;19.40;61.90;;;;;;5016286;28;20025;-87
2021/05/18 15:28:54;;;;;;;2.13;1.33;;;19.50;62.00;;;;;;5037764;28;20426;-85
2021/05/18 15:31:20;;;;;;;2.20;1.50;;;19.50;61.90;;;;;;5034331;28;20036;-89
2021/05/18 15:33:46;;;;;;;2.33;1.42;;;19.50;61.80;;;;;;5042735;28;20036;-85
2021/05/18 15:36:13;;;;;;;1.30;1.20;;;19.50;61.70;;;;;;5020012;28;20029;-84
2021/05/18 15:38:39;;;;;;;1.50;1.30;;;19.50;61.70;;;;;;5068379;28;20020;-85
2021/05/18 15:41:07;;;;;;;1.92;1.25;;;19.50;61.60;;;;;;5039971;28;20037;-85
2021/05/18 15:43:34;;;;;;;1.40;1.30;;;19.50;61.50;;;;;;5073856;28;20052;-84
2021/05/18 15:46:01;;;;;;;1.98;1.30;;;19.60;61.50;;;;;;5055834;28;20016;-85
2021/05/18 15:48:26;;;;;;;2.80;1.40;;;19.60;61.40;;;;;;5045756;28;20035;-85
2021/05/18 15:50:52;;;;;;;1.77;1.20;;;19.60;61.30;;;;;;5055837;28;20036;-85
2021/05/18 15:53:18;;;;;;;1.27;1.10;;;19.60;61.30;;;;;;5039447;28;20082;-85
2021/05/18 15:55:44;;;;;;;1.70;1.38;;;19.60;61.30;;;;;;5030073;28;20426;-85
2021/05/18 15:58:11;;;;;;;1.30;1.10;;;19.60;61.20;;;;;;5039841;28;20029;-85
2021/05/18 16:00:36;;;;;;;1.13;1.00;;;19.70;61.30;;;;;;5051125;28;20103;-87
2021/05/18 16:03:03;;;;;;;1.40;1.13;;;19.70;61.30;;;;;;5039491;28;20092;-84
2021/05/18 16:05:28;;;;;;;1.20;1.10;;;19.70;61.20;;;;;;5039968;28;20025;-86
2021/05/18 16:08:05;;;;;;;0.98;0.90;;;19.70;61.00;;;;;;5009897;28;20124;-85
2021/05/18 16:10:31;;;;;;;1.67;1.20;;;19.70;61.00;;;;;;5067839;28;20035;-85
2021/05/18 16:12:56;;;;;;;1.27;1.05;;;19.70;60.80;;;;;;5039009;28;20021;-85
2021/05/18 16:15:22;;;;;;;0.90;0.90;;;19.80;60.90;;;;;;5037334;28;20037;-87
2021/05/18 16:17:48;;;;;;;1.10;1.00;;;19.80;60.80;;;;;;5060500;28;20118;-86
2021/05/18 16:20:14;;;;;;;0.77;0.75;;;19.80;60.80;;;;;;5059423;28;20408;-85
2021/05/18 16:22:40;;;;;;;1.20;1.00;;;19.80;60.70;;;;;;5037114;28;20029;-85
2021/05/18 16:25:06;;;;;;;1.02;0.93;;;19.80;60.60;;;;;;5030902;28;20040;-79
2021/05/18 16:27:32;;;;;;;1.02;0.93;;;19.90;60.50;;;;;;5035433;28;20040;-83
2021/05/18 16:29:58;;;;;;;1.75;0.90;;;19.90;60.30;;;;;;5033258;28;20053;-85
2021/05/18 16:32:25;;;;;;;0.80;0.80;;;19.90;60.10;;;;;;5043902;28;20033;-86
2021/05/18 16:38:03;;;;;;;0.82;0.82;;;20.00;59.90;;;;;;5054445;28;20124;-89
2021/05/18 16:40:29;;;;;;;0.70;0.70;;;20.00;59.80;;;;;;5019559;28;20108;-86
2021/05/18 16:42:55;;;;;;;1.20;0.93;;;20.10;59.80;;;;;;5038410;28;20082;-93
2021/05/18 16:45:21;;;;;;;0.75;0.75;;;20.10;59.70;;;;;;5021746;28;20121;-89
2021/05/18 16:47:46;;;;;;;0.75;0.68;;;20.10;59.60;;;;;;5039173;28;20024;-91
2021/05/18 16:50:12;;;;;;;0.70;0.70;;;20.20;59.50;;;;;;5022592;28;20032;-89
2021/05/18 16:52:39;;;;;;;0.98;0.70;;;20.20;59.50;;;;;;5044953;28;20056;-89
2021/05/18 16:55:06;;;;;;;1.00;0.90;;;20.20;59.40;;;;;;5029374;28;20044;-92
2021/05/18 16:57:32;;;;;;;0.80;0.80;;;20.20;59.30;;;;;;5052580;28;20753;-90
2021/05/18 16:59:58;;;;;;;0.80;0.80;;;20.30;59.40;;;;;;5042359;28;20111;-88
2021/05/18 17:02:24;;;;;;;0.90;0.90;;;20.30;59.20;;;;;;5035512;28;20029;-91
2021/05/18 17:04:50;;;;;;;0.82;0.77;;;20.30;59.20;;;;;;5019712;28;20025;-95
2021/05/18 17:07:16;;;;;;;1.10;0.80;;;20.30;59.20;;;;;;5032606;28;20314;-90
2021/05/18 17:09:43;;;;;;;1.05;0.85;;;20.40;59.40;;;;;;5054814;28;20075;-87
2021/05/18 17:12:09;;;;;;;0.70;0.70;;;20.40;59.50;;;;;;5036320;28;20089;-89
2021/05/18 17:14:35;;;;;;;0.80;0.70;;;20.40;59.50;;;;;;5053007;28;20048;-90
2021/05/18 17:17:01;;;;;;;0.70;0.70;;;20.50;59.70;;;;;;5039090;28;20550;-88
2021/05/18 17:19:27;;;;;;;2.03;0.70;;;20.50;59.80;;;;;;5047168;28;20021;-91
2021/05/18 17:21:53;;;;;;;0.73;0.73;;;20.50;60.50;;;;;;5038629;28;20088;-89
2021/05/18 17:24:19;;;;;;;0.60;0.60;;;20.50;60.00;;;;;;5022093;28;20381;-86
2021/05/18 17:26:44;;;;;;;0.70;0.70;;;20.50;60.00;;;;;;5037762;28;20469;-82
2021/05/18 17:29:11;;;;;;;0.70;0.70;;;20.60;60.10;;;;;;5051677;28;20029;-85
2021/05/18 17:31:42;;;;;;;0.60;0.60;;;20.50;60.10;;;;;;5034005;28;20053;-89
2021/05/18 17:34:07;;;;;;;0.68;0.68;;;20.60;60.10;;;;;;5052740;28;20025;-83
2021/05/18 17:36:33;;;;;;;1.15;0.90;;;20.60;60.10;;;;;;5034460;28;20032;-88
2021/05/18 17:38:59;;;;;;;1.58;0.82;;;20.60;60.10;;;;;;5031504;28;20455;-83
2021/05/18 17:41:26;;;;;;;1.20;0.90;;;20.60;60.10;;;;;;5017242;28;20171;-87
2021/05/18 17:43:55;;;;;;;1.10;0.90;;;20.60;60.10;;;;;;5034444;28;20031;-84
2021/05/18 17:46:32;;;;;;;1.02;0.93;;;20.60;60.00;;;;;;5040093;28;20017;-84
2021/05/18 17:48:58;;;;;;;1.35;0.68;;;20.60;59.90;;;;;;5039436;28;20016;-84
2021/05/18 17:51:23;;;;;;;0.70;0.70;;;20.60;59.80;;;;;;5021797;28;20032;-82
2021/05/18 17:53:50;;;;;;;1.23;0.80;;;20.50;59.70;;;;;;5042068;28;20116;-82
2021/05/18 17:56:34;;;;;;;1.15;0.63;;;20.50;59.60;;;;;;5074404;28;20099;-84
2021/05/18 17:59:00;;;;;;;0.80;0.80;;;20.50;59.60;;;;;;5039849;28;20079;-85
2021/05/18 18:01:26;;;;;;;0.70;0.70;;;20.50;59.40;;;;;;5057190;28;20568;-85
2021/05/18 18:03:52;;;;;;;0.70;0.70;;;20.50;59.40;;;;;;5061344;28;20469;-83
2021/05/18 18:06:18;;;;;;;0.60;0.60;;;20.50;59.30;;;;;;5028117;28;20381;-82
2021/05/18 18:08:45;;;;;;;1.05;0.77;;;20.40;59.20;;;;;;5046764;28;20024;-84
2021/05/18 18:11:11;;;;;;;0.80;0.80;;;20.40;59.10;;;;;;5039978;28;20106;-83
2021/05/18 18:13:37;;;;;;;0.73;0.73;;;20.40;59.00;;;;;;5036219;28;20095;-82
2021/05/18 18:16:07;;;;;;;0.70;0.70;;;20.40;59.10;;;;;;5054938;28;20117;-83
2021/05/18 18:18:33;;;;;;;0.68;0.68;;;20.40;59.10;;;;;;5038382;28;20029;-83